Hovedside
METAR-TAF:

METAR-TAF

Lufthavner :

Curaçao internasjonale lufthavn

Curaçao, De nederlandske Antillene

breddegrad: 12-12N, lengdegrad: 068-58W, høyde over havet: 9 m

Gjeldene værobservasjon

Denne rapporten ble laget for 30 minutter siden, klokken 01:00 UTC
Vind 5 kt fra Øst
Temperatur 28°C
Luftfuktighet 70%
Trykk 1009 hPa
Sikt 10 km eller mer
Få skyer i en høyde av 1900 ft

METAR: TNCC 170100Z 08005KT 9999 FEW019 28/22 Q1009 NOSIG

Tid: 21:30 (01:30 UTC)

Varsel

Denne rapporten ble laget for 2 timer og 15 minutter siden, klokken 23:15 UTC
Varsel gyldig fra 17. klokken 00 UTC til 17. klokken 24 UTC
Vind 8 kt fra Øst
Sikt 10 km eller mer
Spredte skyer i en høyde av 2000 ft
Sannsynlighet 40% :
Midlertidig
fra 17. klokken 14 UTC til 17. klokken 20 UTC
Sikt: 5000 m
Brutte skyer i en høyde av 1500 ft
regnbyger

TAF: TNCC 162315Z 1700/1724 08008KT 9999 SCT020 PROB40 TEMPO 1714/1720 5000 SHRA BKN015

Værobservasjoner og værvarsel for over 4000 flyplasser (METAR- og TAF-rapporter).

Tilgjengelige stasjoner er representert av de røde og gule prikkene på kartet.

Hold musepekeren over prikken for å se navnet på stasjonen.

Klikk så for å se værobservasjoner og -varsler.

For å forandre kartet kan du klikke på den grønne knappen med svart kryss for å zoome inn, på den grønne knappen med strek for å zoome ut, eller på de grønne pilene for å se tilstøtende kart.


METAR-TAF: